Time;durP1;ratioP1;P1;durP2;ratioP2;P2;SDS_P1;SDS_P2;PMS_P1;PMS_P2;Temp;Humidity;BMP_temperature;BMP_pressure;BME280_temperature;BME280_humidity;BME280_pressure;Samples;Min_cycle;Max_cycle;Signal;HPM_P1;HPM_P2
2023/02/05 00:00:08;;;;;;;26.15;11.25;;;1.50;99.90;;;;;;495769;239;27543;-76
2023/02/05 00:02:09;;;;;;;21.73;9.52;;;1.60;99.90;;;;;;495751;239;27391;-76
2023/02/05 00:04:10;;;;;;;17.92;9.00;;;1.70;99.90;;;;;;495773;239;27352;-76
2023/02/05 00:06:12;;;;;;;19.08;8.43;;;1.70;99.90;;;;;;495834;239;27435;-76
2023/02/05 00:08:13;;;;;;;14.27;8.00;;;1.80;99.90;;;;;;495809;239;28002;-76
2023/02/05 00:10:14;;;;;;;16.87;7.70;;;1.80;99.90;;;;;;495823;239;27959;-76
2023/02/05 00:12:15;;;;;;;20.62;7.62;;;1.80;99.90;;;;;;495737;240;27875;-76
2023/02/05 00:14:17;;;;;;;16.65;7.45;;;1.80;99.90;;;;;;495790;239;27379;-76
2023/02/05 00:16:18;;;;;;;22.62;9.48;;;1.80;99.90;;;;;;495844;239;27341;-76
2023/02/05 00:18:19;;;;;;;14.77;8.20;;;1.90;99.90;;;;;;495827;239;27478;-77
2023/02/05 00:20:20;;;;;;;16.58;6.90;;;1.90;99.90;;;;;;495780;239;27419;-76
2023/02/05 00:22:22;;;;;;;16.65;8.27;;;1.90;99.90;;;;;;495740;239;27352;-76
2023/02/05 00:24:23;;;;;;;19.60;6.70;;;1.90;99.90;;;;;;495769;239;27444;-76
2023/02/05 00:26:24;;;;;;;18.15;7.75;;;1.90;99.90;;;;;;495794;239;27510;-76
2023/02/05 00:28:25;;;;;;;14.65;7.45;;;1.90;99.90;;;;;;495790;239;28027;-77
2023/02/05 00:30:27;;;;;;;13.70;7.60;;;1.90;99.90;;;;;;495642;239;27924;-75
2023/02/05 00:32:28;;;;;;;14.93;7.12;;;1.90;99.90;;;;;;495766;239;29168;-76
2023/02/05 00:34:29;;;;;;;19.05;8.77;;;1.90;99.90;;;;;;495779;239;27448;-76
2023/02/05 00:36:30;;;;;;;25.65;10.85;;;1.90;99.90;;;;;;495790;239;27487;-76
2023/02/05 00:38:32;;;;;;;23.00;10.80;;;1.90;99.90;;;;;;495806;239;27380;-76
2023/02/05 00:40:33;;;;;;;19.95;10.00;;;2.00;99.90;;;;;;495779;239;27456;-75
2023/02/05 00:42:34;;;;;;;18.37;8.40;;;2.00;99.90;;;;;;495764;239;27431;-75
2023/02/05 00:44:35;;;;;;;24.48;9.77;;;2.10;99.90;;;;;;495745;239;27388;-76
2023/02/05 00:46:37;;;;;;;20.42;8.25;;;2.00;99.90;;;;;;495767;239;27933;-76
2023/02/05 00:48:38;;;;;;;16.30;8.20;;;2.00;99.90;;;;;;495820;239;28088;-77
2023/02/05 00:50:39;;;;;;;17.58;7.78;;;2.00;99.90;;;;;;495772;239;27804;-75
2023/02/05 00:52:40;;;;;;;17.23;8.10;;;2.10;99.90;;;;;;495796;239;27487;-75
2023/02/05 00:54:42;;;;;;;19.30;8.57;;;2.10;99.90;;;;;;495751;239;27545;-76
2023/02/05 00:56:43;;;;;;;17.48;8.60;;;1.90;99.90;;;;;;495746;239;27383;-76
2023/02/05 00:58:46;;;;;;;15.48;6.85;;;1.90;99.90;;;;;;495792;239;27963;-76
2023/02/05 01:00:45;;;;;;;15.13;6.60;;;2.00;99.90;;;;;;479662;247;27468;-76
2023/02/05 01:02:47;;;;;;;13.27;6.55;;;2.00;99.90;;;;;;465276;255;27583;-76
2023/02/05 01:04:48;;;;;;;13.48;7.20;;;2.00;99.90;;;;;;466960;254;27457;-76
2023/02/05 01:06:49;;;;;;;13.52;6.82;;;2.00;99.90;;;;;;466932;254;28165;-77
2023/02/05 01:08:50;;;;;;;9.85;6.60;;;2.00;99.90;;;;;;466995;254;28127;-77
2023/02/05 01:10:52;;;;;;;12.75;6.20;;;2.00;99.90;;;;;;466987;254;27924;-76
2023/02/05 01:12:53;;;;;;;16.80;7.78;;;2.00;99.90;;;;;;466967;254;27690;-76
2023/02/05 01:14:54;;;;;;;11.32;6.05;;;2.10;99.90;;;;;;466973;254;27638;-77
2023/02/05 01:16:55;;;;;;;14.20;7.00;;;2.10;99.90;;;;;;466960;254;27536;-76
2023/02/05 01:18:57;;;;;;;13.70;6.30;;;2.20;99.90;;;;;;467006;254;28052;-76
2023/02/05 01:20:58;;;;;;;11.65;6.60;;;2.10;99.90;;;;;;467004;254;27557;-75
2023/02/05 01:22:59;;;;;;;23.05;7.30;;;2.20;99.90;;;;;;467000;254;27599;-76
2023/02/05 01:25:00;;;;;;;15.05;7.18;;;2.30;99.90;;;;;;466961;254;27450;-76
2023/02/05 01:27:02;;;;;;;10.80;6.50;;;2.30;99.90;;;;;;466848;254;28000;-76
2023/02/05 01:29:03;;;;;;;10.07;6.45;;;2.30;99.90;;;;;;466948;254;28180;-76
2023/02/05 01:31:04;;;;;;;12.45;6.40;;;2.30;99.90;;;;;;466964;254;28206;-76
2023/02/05 01:33:05;;;;;;;14.50;6.28;;;2.30;99.90;;;;;;466884;254;27513;-76
2023/02/05 01:35:07;;;;;;;11.43;6.55;;;2.30;99.90;;;;;;466926;254;27631;-76
2023/02/05 01:37:08;;;;;;;17.50;6.95;;;2.30;99.90;;;;;;466930;254;27520;-76
2023/02/05 01:39:09;;;;;;;14.10;5.68;;;2.40;99.90;;;;;;475526;246;27571;-76
2023/02/05 01:41:11;;;;;;;14.25;6.50;;;2.30;99.90;;;;;;495789;239;27360;-76
2023/02/05 01:43:12;;;;;;;19.08;6.70;;;2.40;99.90;;;;;;495786;239;27467;-77
2023/02/05 01:45:13;;;;;;;12.30;6.43;;;2.30;99.90;;;;;;495767;239;27424;-76
2023/02/05 01:47:14;;;;;;;13.02;7.03;;;2.40;99.90;;;;;;495752;239;27962;-76
2023/02/05 01:49:15;;;;;;;19.65;7.72;;;2.30;99.90;;;;;;495755;239;28655;-74
2023/02/05 01:51:17;;;;;;;14.15;6.70;;;2.30;99.90;;;;;;495791;239;28014;-75
2023/02/05 01:53:18;;;;;;;15.38;7.30;;;2.30;99.90;;;;;;495779;239;27429;-78
2023/02/05 01:55:19;;;;;;;10.13;6.18;;;2.20;99.90;;;;;;495700;239;27349;-76
2023/02/05 01:57:21;;;;;;;11.15;6.55;;;2.30;99.90;;;;;;495764;239;27389;-77
2023/02/05 01:59:23;;;;;;;15.18;7.32;;;2.20;99.90;;;;;;495761;239;27388;-76
2023/02/05 02:01:23;;;;;;;15.05;7.40;;;2.20;99.90;;;;;;495746;239;27418;-76
2023/02/05 02:03:26;;;;;;;13.18;6.80;;;2.30;99.90;;;;;;495792;239;27384;-76
2023/02/05 02:05:25;;;;;;;10.45;6.15;;;2.30;99.90;;;;;;495581;239;27368;-76
2023/02/05 02:07:27;;;;;;;9.10;5.80;;;2.30;99.90;;;;;;495747;239;27876;-76
2023/02/05 02:09:28;;;;;;;18.17;6.30;;;2.40;99.90;;;;;;495738;239;27903;-76
2023/02/05 02:11:29;;;;;;;12.63;5.72;;;2.40;99.90;;;;;;495766;239;27847;-77
2023/02/05 02:13:31;;;;;;;16.65;6.87;;;2.50;99.90;;;;;;495775;239;27482;-76
2023/02/05 02:15:32;;;;;;;13.85;6.60;;;2.50;99.90;;;;;;495794;239;27465;-77
2023/02/05 02:17:37;;;;;;;9.15;5.72;;;2.50;99.90;;;;;;495777;239;27424;-76
2023/02/05 02:19:34;;;;;;;18.10;6.90;;;2.50;99.90;;;;;;495483;239;27423;-75
2023/02/05 02:21:36;;;;;;;14.38;6.82;;;2.50;99.90;;;;;;495793;239;27396;-76
2023/02/05 02:23:37;;;;;;;8.32;5.55;;;2.60;99.90;;;;;;495796;239;27479;-76
2023/02/05 02:25:38;;;;;;;13.25;6.47;;;2.60;99.90;;;;;;495773;239;27353;-76
2023/02/05 02:27:39;;;;;;;11.27;7.12;;;2.60;99.90;;;;;;495782;239;27388;-76
2023/02/05 02:29:41;;;;;;;16.55;6.37;;;2.60;99.90;;;;;;495797;239;27815;-76
2023/02/05 02:31:42;;;;;;;8.98;5.50;;;2.60;99.90;;;;;;495767;239;27878;-76
2023/02/05 02:33:43;;;;;;;18.15;5.85;;;2.70;99.90;;;;;;495792;239;27964;-76
2023/02/05 02:35:44;;;;;;;15.73;7.25;;;2.60;99.90;;;;;;495715;239;27419;-77
2023/02/05 02:37:46;;;;;;;15.23;6.78;;;2.60;99.90;;;;;;495782;239;27395;-77
2023/02/05 02:39:47;;;;;;;9.52;6.05;;;2.50;99.90;;;;;;495696;239;27344;-76
2023/02/05 02:41:48;;;;;;;16.10;7.22;;;2.50;99.90;;;;;;495739;239;27392;-76
2023/02/05 02:43:49;;;;;;;15.52;7.53;;;2.50;99.90;;;;;;495743;239;27380;-75
2023/02/05 02:45:51;;;;;;;12.70;5.90;;;2.50;99.90;;;;;;495800;239;27368;-77
2023/02/05 02:47:52;;;;;;;11.77;6.15;;;2.50;99.90;;;;;;495795;239;27384;-77
2023/02/05 02:49:53;;;;;;;11.57;6.10;;;2.50;99.90;;;;;;495755;239;27825;-76
2023/02/05 02:51:54;;;;;;;15.27;6.65;;;2.50;99.90;;;;;;495739;239;27923;-77
2023/02/05 02:53:56;;;;;;;14.70;6.65;;;2.40;99.90;;;;;;495737;239;28634;-76
2023/02/05 02:55:57;;;;;;;11.65;6.53;;;2.40;99.90;;;;;;495794;239;27436;-75
2023/02/05 02:57:58;;;;;;;10.70;6.85;;;2.40;99.90;;;;;;495772;239;27384;-77
2023/02/05 02:59:59;;;;;;;13.88;6.10;;;2.50;99.90;;;;;;495741;239;27346;-76
2023/02/05 03:02:01;;;;;;;14.30;6.28;;;2.60;99.90;;;;;;495733;239;27515;-77
2023/02/05 03:04:02;;;;;;;12.85;5.80;;;2.70;99.90;;;;;;495741;239;27463;-75
2023/02/05 03:06:03;;;;;;;12.52;5.70;;;2.70;99.90;;;;;;495777;239;27384;-76
2023/02/05 03:08:04;;;;;;;15.95;6.78;;;2.70;99.90;;;;;;495783;239;27380;-77
2023/02/05 03:10:06;;;;;;;11.35;6.70;;;2.70;99.90;;;;;;495731;239;27833;-77
2023/02/05 03:12:07;;;;;;;11.70;5.95;;;2.70;99.90;;;;;;495749;239;27998;-75
2023/02/05 03:14:08;;;;;;;32.50;6.32;;;2.80;99.90;;;;;;495740;239;27831;-75
2023/02/05 03:16:09;;;;;;;15.38;6.60;;;2.80;99.90;;;;;;495802;239;27439;-75
2023/02/05 03:18:11;;;;;;;9.70;5.47;;;2.80;99.90;;;;;;495813;239;27429;-76
2023/02/05 03:20:12;;;;;;;12.52;5.07;;;2.80;99.90;;;;;;495790;239;27460;-76
2023/02/05 03:22:13;;;;;;;11.05;5.57;;;2.80;99.90;;;;;;495776;239;27422;-77
2023/02/05 03:24:14;;;;;;;13.13;5.55;;;2.80;99.90;;;;;;495772;239;27457;-76
2023/02/05 03:26:16;;;;;;;15.45;5.87;;;2.90;99.90;;;;;;495800;239;27391;-76
2023/02/05 03:28:17;;;;;;;12.52;4.93;;;2.90;99.90;;;;;;495806;239;27463;-75
2023/02/05 03:30:18;;;;;;;10.82;5.03;;;2.90;99.90;;;;;;495779;239;28005;-75
2023/02/05 03:32:19;;;;;;;13.10;5.37;;;2.90;99.90;;;;;;495777;239;27972;-76
2023/02/05 03:34:21;;;;;;;10.02;4.80;;;2.90;99.90;;;;;;495771;239;28943;-75
2023/02/05 03:36:22;;;;;;;10.50;5.72;;;3.00;99.90;;;;;;495817;239;27460;-75
2023/02/05 03:38:23;;;;;;;12.73;5.97;;;2.90;99.90;;;;;;495831;239;27629;-75
2023/02/05 03:40:24;;;;;;;13.52;6.57;;;2.80;99.90;;;;;;495828;239;27452;-75
2023/02/05 03:42:26;;;;;;;11.15;5.10;;;2.80;99.90;;;;;;495811;239;27502;-77
2023/02/05 03:44:27;;;;;;;9.45;5.57;;;2.80;99.90;;;;;;495743;239;27360;-76
2023/02/05 03:46:28;;;;;;;13.57;4.80;;;2.90;99.90;;;;;;495760;239;27435;-75
2023/02/05 03:48:29;;;;;;;14.10;6.03;;;2.90;99.90;;;;;;495799;239;27613;-78
2023/02/05 03:50:31;;;;;;;11.20;5.15;;;3.00;99.90;;;;;;495792;239;27738;-77
2023/02/05 03:52:34;;;;;;;16.00;5.82;;;3.10;99.90;;;;;;495769;239;27876;-76
2023/02/05 03:54:33;;;;;;;11.27;5.80;;;3.10;99.90;;;;;;495640;240;27817;-75
2023/02/05 03:56:35;;;;;;;10.45;5.53;;;3.20;99.90;;;;;;495771;239;27493;-77
2023/02/05 03:58:36;;;;;;;9.20;4.40;;;3.20;99.90;;;;;;495817;239;27495;-76
2023/02/05 04:00:37;;;;;;;14.45;5.05;;;3.20;99.90;;;;;;495789;239;27360;-77
2023/02/05 04:02:38;;;;;;;13.35;4.80;;;3.20;99.90;;;;;;495777;239;27460;-77
2023/02/05 04:04:39;;;;;;;13.77;5.05;;;3.20;99.90;;;;;;495767;239;27356;-75
2023/02/05 04:06:41;;;;;;;10.65;4.57;;;3.30;99.90;;;;;;495803;239;27515;-76
2023/02/05 04:08:45;;;;;;;7.20;4.55;;;3.30;99.90;;;;;;495806;239;27427;-76
2023/02/05 04:10:46;;;;;;;12.02;5.03;;;3.30;99.90;;;;;;495822;239;27384;-77
2023/02/05 04:12:47;;;;;;;10.20;4.53;;;3.30;99.90;;;;;;495808;239;27891;-76
2023/02/05 04:14:48;;;;;;;11.25;5.72;;;3.40;99.90;;;;;;495768;239;27954;-77
2023/02/05 04:16:50;;;;;;;12.50;5.75;;;3.40;99.90;;;;;;495782;239;27930;-77
2023/02/05 04:18:51;;;;;;;10.32;4.70;;;3.30;99.90;;;;;;495801;239;27384;-76
2023/02/05 04:20:52;;;;;;;10.45;5.25;;;3.30;99.90;;;;;;495847;239;27552;-75
2023/02/05 04:22:53;;;;;;;9.25;4.80;;;3.40;99.90;;;;;;495794;239;27349;-76
2023/02/05 04:24:55;;;;;;;11.30;5.40;;;3.40;99.90;;;;;;495785;239;27415;-76
2023/02/05 04:26:56;;;;;;;13.95;5.70;;;3.40;99.90;;;;;;495801;239;27476;-76
2023/02/05 04:28:57;;;;;;;15.30;5.85;;;3.40;99.90;;;;;;495745;239;27387;-77
2023/02/05 04:30:59;;;;;;;15.20;5.82;;;3.40;99.90;;;;;;495813;239;27467;-77
2023/02/05 04:33:00;;;;;;;9.55;5.65;;;3.40;99.90;;;;;;495793;239;27793;-75
2023/02/05 04:35:01;;;;;;;8.30;4.85;;;3.50;99.90;;;;;;495813;239;27985;-76
2023/02/05 04:37:02;;;;;;;12.77;5.50;;;3.50;99.90;;;;;;495779;239;27826;-76
2023/02/05 04:39:04;;;;;;;8.88;4.97;;;3.50;99.90;;;;;;495751;239;27377;-76
2023/02/05 04:41:05;;;;;;;15.15;6.53;;;3.50;99.90;;;;;;495803;239;27471;-77
2023/02/05 04:43:06;;;;;;;15.43;5.87;;;3.50;99.90;;;;;;495815;239;27399;-76
2023/02/05 04:45:07;;;;;;;15.02;6.65;;;3.50;99.90;;;;;;495795;239;27464;-77
2023/02/05 04:47:09;;;;;;;16.23;5.97;;;3.50;99.90;;;;;;495791;239;27348;-76
2023/02/05 04:49:10;;;;;;;7.57;5.00;;;3.50;99.90;;;;;;495796;239;27389;-76
2023/02/05 04:51:11;;;;;;;13.20;6.15;;;3.40;99.90;;;;;;495816;239;27737;-76
2023/02/05 04:53:12;;;;;;;15.43;6.00;;;3.50;99.90;;;;;;495796;239;27343;-76
2023/02/05 04:55:14;;;;;;;12.18;5.05;;;3.50;99.90;;;;;;495804;239;27999;-76
2023/02/05 04:57:15;;;;;;;14.60;6.65;;;3.40;99.90;;;;;;495800;239;27999;-77
2023/02/05 04:59:16;;;;;;;10.90;5.65;;;3.40;99.90;;;;;;495781;239;27989;-77
2023/02/05 05:01:17;;;;;;;12.98;5.60;;;3.40;99.90;;;;;;495846;239;27388;-76
2023/02/05 05:03:19;;;;;;;14.02;6.45;;;3.40;99.90;;;;;;495822;239;27349;-77
2023/02/05 05:05:20;;;;;;;14.80;6.03;;;3.40;99.90;;;;;;495821;239;27446;-75
2023/02/05 05:07:21;;;;;;;17.17;6.60;;;3.40;99.90;;;;;;495799;239;27434;-76
2023/02/05 05:09:23;;;;;;;19.98;7.90;;;3.50;99.90;;;;;;495780;239;27526;-76
2023/02/05 05:11:24;;;;;;;16.80;6.53;;;3.50;99.90;;;;;;495776;239;27822;-75
2023/02/05 05:13:25;;;;;;;13.40;6.22;;;3.50;99.90;;;;;;495811;239;27554;-76
2023/02/05 05:15:26;;;;;;;24.98;7.97;;;3.50;99.90;;;;;;495801;239;27981;-76
2023/02/05 05:17:27;;;;;;;20.95;7.95;;;3.40;99.90;;;;;;495778;239;27808;-76
2023/02/05 05:19:29;;;;;;;10.65;6.40;;;3.40;99.90;;;;;;495779;239;27941;-76
2023/02/05 05:21:30;;;;;;;14.18;6.07;;;3.40;99.90;;;;;;495828;239;27429;-76
2023/02/05 05:23:31;;;;;;;13.07;6.12;;;3.50;99.90;;;;;;495791;239;27428;-77
2023/02/05 05:25:32;;;;;;;15.10;7.10;;;3.40;99.90;;;;;;495775;239;27420;-76
2023/02/05 05:27:34;;;;;;;15.35;6.62;;;3.50;99.90;;;;;;495787;239;27466;-75
2023/02/05 05:29:35;;;;;;;23.35;8.73;;;3.50;99.90;;;;;;495791;239;27396;-76
2023/02/05 05:31:36;;;;;;;17.05;7.87;;;3.50;99.90;;;;;;495813;239;27423;-76
2023/02/05 05:33:37;;;;;;;16.23;5.80;;;3.50;99.90;;;;;;495790;239;27368;-76
2023/02/05 05:35:39;;;;;;;15.70;7.25;;;3.50;99.90;;;;;;495773;239;27931;-75
2023/02/05 05:37:40;;;;;;;13.32;6.60;;;3.60;99.90;;;;;;495756;239;27805;-76
2023/02/05 05:44:17;;;;;;;16.23;7.40;;;3.60;99.90;;;;;;490632;242;27424;-76
2023/02/05 05:46:22;;;;;;;17.83;7.50;;;3.50;99.90;;;;;;478255;246;29235;-76
2023/02/05 05:48:22;;;;;;;15.48;6.95;;;3.60;99.90;;;;;;495789;239;27562;-76
2023/02/05 05:50:24;;;;;;;15.40;7.07;;;3.60;99.90;;;;;;495803;239;27905;-76
2023/02/05 05:52:25;;;;;;;10.35;6.95;;;3.60;99.90;;;;;;495774;239;29062;-76
2023/02/05 05:54:26;;;;;;;17.77;7.37;;;3.60;99.90;;;;;;495764;239;27969;-76
2023/02/05 05:56:27;;;;;;;15.70;6.78;;;3.60;99.90;;;;;;495749;239;27400;-75
2023/02/05 05:58:29;;;;;;;19.02;7.50;;;3.60;99.90;;;;;;495818;239;27385;-76
2023/02/05 06:00:30;;;;;;;22.37;8.07;;;3.70;99.90;;;;;;495785;239;27381;-75
2023/02/05 06:02:31;;;;;;;18.15;7.07;;;3.70;99.90;;;;;;495740;239;27494;-77
2023/02/05 06:04:32;;;;;;;13.55;7.35;;;3.70;99.90;;;;;;495786;239;27357;-76
2023/02/05 06:06:34;;;;;;;23.80;8.35;;;3.70;99.90;;;;;;495774;239;27472;-76
2023/02/05 06:08:35;;;;;;;20.27;8.90;;;3.70;99.90;;;;;;495827;239;28131;-76
2023/02/05 06:10:36;;;;;;;14.05;8.00;;;3.70;99.90;;;;;;495809;239;27864;-76
2023/02/05 06:12:37;;;;;;;24.02;8.95;;;3.70;99.90;;;;;;495762;239;28079;-76
2023/02/05 06:14:39;;;;;;;25.20;9.48;;;3.70;99.90;;;;;;495757;239;27460;-76
2023/02/05 06:16:40;;;;;;;10.73;6.47;;;3.70;99.90;;;;;;495770;239;27392;-76
2023/02/05 06:18:41;;;;;;;14.30;8.55;;;3.80;99.90;;;;;;495817;239;27428;-76
2023/02/05 06:20:42;;;;;;;16.62;8.55;;;3.80;99.90;;;;;;495792;239;27459;-75
2023/02/05 06:22:44;;;;;;;13.25;7.78;;;3.80;99.90;;;;;;495792;239;27415;-76
2023/02/05 06:24:45;;;;;;;14.02;8.48;;;3.80;99.90;;;;;;495760;239;27352;-75
2023/02/05 06:26:46;;;;;;;21.95;9.90;;;3.80;99.90;;;;;;495735;239;27400;-76
2023/02/05 06:28:47;;;;;;;14.98;7.53;;;3.80;99.90;;;;;;495808;239;27991;-77
2023/02/05 06:30:49;;;;;;;18.73;9.65;;;3.80;99.90;;;;;;495829;239;27799;-78
2023/02/05 06:32:50;;;;;;;17.92;8.35;;;3.80;99.90;;;;;;495785;239;27570;-77
2023/02/05 06:34:51;;;;;;;17.48;8.57;;;3.80;99.90;;;;;;495782;239;27428;-75
2023/02/05 06:36:52;;;;;;;13.80;8.23;;;3.80;99.90;;;;;;495812;239;27388;-75
2023/02/05 06:38:54;;;;;;;18.27;7.75;;;3.80;99.90;;;;;;495865;239;27776;-76
2023/02/05 06:40:55;;;;;;;18.55;8.25;;;3.70;99.90;;;;;;495827;239;27454;-75
2023/02/05 06:42:56;;;;;;;17.40;8.60;;;3.70;99.90;;;;;;495820;239;27417;-77
2023/02/05 06:44:57;;;;;;;19.73;8.63;;;3.70;99.90;;;;;;495766;239;27348;-75
2023/02/05 06:46:59;;;;;;;17.75;8.07;;;3.80;99.90;;;;;;495747;239;27857;-76
2023/02/05 06:49:00;;;;;;;17.83;9.68;;;3.80;99.90;;;;;;495813;239;28117;-76
2023/02/05 06:51:01;;;;;;;19.33;8.70;;;3.80;99.90;;;;;;495779;239;27898;-76
2023/02/05 06:53:02;;;;;;;16.27;8.95;;;3.80;99.90;;;;;;495766;239;27480;-77
2023/02/05 06:55:04;;;;;;;17.67;9.48;;;3.80;99.90;;;;;;495712;239;27425;-77
2023/02/05 06:57:05;;;;;;;22.70;10.18;;;3.80;99.90;;;;;;495716;239;27396;-75
2023/02/05 06:59:06;;;;;;;22.92;10.40;;;3.80;99.90;;;;;;495795;239;27516;-75
2023/02/05 07:01:07;;;;;;;19.25;9.55;;;3.80;99.90;;;;;;495814;239;27479;-77
2023/02/05 07:03:09;;;;;;;19.23;9.50;;;3.70;99.90;;;;;;495789;239;27466;-76
2023/02/05 07:05:10;;;;;;;32.15;12.13;;;3.70;99.90;;;;;;495762;239;27919;-75
2023/02/05 07:07:12;;;;;;;20.88;9.05;;;3.70;99.90;;;;;;495766;239;27891;-77
2023/02/05 07:09:12;;;;;;;16.90;9.73;;;3.70;99.90;;;;;;495808;239;27384;-75
2023/02/05 07:11:14;;;;;;;24.12;9.88;;;3.70;99.90;;;;;;495817;239;27424;-76
2023/02/05 07:13:15;;;;;;;19.08;10.35;;;3.70;99.90;;;;;;495807;239;27603;-76
2023/02/05 07:15:16;;;;;;;28.30;11.82;;;3.70;99.90;;;;;;495828;239;27533;-77
2023/02/05 07:17:18;;;;;;;26.17;10.20;;;3.70;99.90;;;;;;495785;239;27420;-76
2023/02/05 07:19:19;;;;;;;27.10;11.90;;;3.70;99.90;;;;;;495772;239;27337;-75
2023/02/05 07:21:21;;;;;;;23.12;10.70;;;3.70;99.90;;;;;;495814;239;27790;-76
2023/02/05 07:23:21;;;;;;;19.12;9.85;;;3.70;99.90;;;;;;495797;239;29040;-76
2023/02/05 07:25:23;;;;;;;28.50;13.05;;;3.70;99.90;;;;;;495802;239;27540;-77
2023/02/05 07:27:24;;;;;;;26.40;10.85;;;3.70;99.90;;;;;;495774;239;27526;-76
2023/02/05 07:29:25;;;;;;;28.25;11.05;;;3.70;99.90;;;;;;495814;239;27451;-75
2023/02/05 07:31:26;;;;;;;24.63;11.98;;;3.70;99.90;;;;;;495822;239;27509;-76
2023/02/05 07:33:28;;;;;;;22.23;10.88;;;3.80;99.90;;;;;;495788;239;27534;-75
2023/02/05 07:35:29;;;;;;;22.02;11.27;;;3.80;99.90;;;;;;495820;239;27456;-75
2023/02/05 07:37:30;;;;;;;22.67;10.80;;;3.80;99.90;;;;;;495814;239;27987;-77
2023/02/05 07:39:32;;;;;;;19.65;10.20;;;3.80;99.90;;;;;;495823;239;27344;-75
2023/02/05 07:41:33;;;;;;;28.08;10.95;;;3.80;99.90;;;;;;495819;239;27578;-76
2023/02/05 07:43:34;;;;;;;27.55;11.50;;;3.80;99.90;;;;;;495848;239;27423;-76
2023/02/05 07:45:35;;;;;;;18.70;10.65;;;3.80;99.90;;;;;;495832;239;27345;-76
2023/02/05 07:47:36;;;;;;;26.55;12.30;;;3.80;99.90;;;;;;495841;239;27419;-76
2023/02/05 07:49:38;;;;;;;23.67;10.23;;;3.80;99.90;;;;;;495797;239;27550;-76
2023/02/05 07:51:39;;;;;;;29.10;12.45;;;3.80;99.90;;;;;;495817;239;27962;-75
2023/02/05 07:53:40;;;;;;;22.25;10.27;;;3.80;99.90;;;;;;495829;239;28184;-77
2023/02/05 07:55:41;;;;;;;29.05;12.18;;;3.80;99.90;;;;;;495810;239;27479;-75
2023/02/05 07:57:43;;;;;;;30.23;13.85;;;3.80;99.90;;;;;;495790;239;27487;-77
2023/02/05 07:59:44;;;;;;;25.12;12.57;;;3.90;99.90;;;;;;495789;239;27521;-77
2023/02/05 08:01:45;;;;;;;24.20;11.52;;;3.80;99.90;;;;;;495811;239;27502;-75
2023/02/05 08:03:46;;;;;;;21.67;11.15;;;3.80;99.90;;;;;;495842;239;27438;-75
2023/02/05 08:05:48;;;;;;;21.40;10.85;;;3.80;99.90;;;;;;495817;239;27925;-75
2023/02/05 08:07:49;;;;;;;40.22;14.60;;;3.90;99.90;;;;;;495812;239;27583;-76
2023/02/05 08:09:50;;;;;;;22.95;12.30;;;3.90;99.90;;;;;;495762;239;27353;-75
2023/02/05 08:11:51;;;;;;;21.73;11.32;;;3.90;99.90;;;;;;495807;239;27416;-77
2023/02/05 08:13:53;;;;;;;37.35;13.73;;;3.90;99.90;;;;;;495818;239;27398;-77
2023/02/05 08:15:54;;;;;;;32.40;13.70;;;4.00;99.90;;;;;;495821;239;27452;-76
2023/02/05 08:17:55;;;;;;;28.90;12.18;;;3.90;99.90;;;;;;495802;239;27978;-76
2023/02/05 08:19:58;;;;;;;21.20;12.93;;;3.90;99.90;;;;;;495771;239;27878;-75
2023/02/05 08:21:58;;;;;;;31.12;13.50;;;4.00;99.90;;;;;;495725;239;27476;-76
2023/02/05 08:23:59;;;;;;;20.25;11.98;;;4.00;99.90;;;;;;495821;239;27416;-75
2023/02/05 08:26:00;;;;;;;22.75;13.23;;;4.00;99.90;;;;;;495807;239;27344;-76
2023/02/05 08:28:02;;;;;;;27.17;11.88;;;4.10;99.90;;;;;;495833;239;27388;-75
2023/02/05 08:30:03;;;;;;;28.20;13.75;;;4.10;99.90;;;;;;495794;239;27367;-75
2023/02/05 08:32:04;;;;;;;37.35;14.07;;;4.10;99.90;;;;;;495789;239;27962;-75
2023/02/05 08:34:05;;;;;;;39.38;13.43;;;4.10;99.90;;;;;;495812;239;28029;-75
2023/02/05 08:36:07;;;;;;;37.70;15.25;;;4.20;99.90;;;;;;495842;239;27617;-77
2023/02/05 08:38:08;;;;;;;28.83;13.02;;;4.20;99.90;;;;;;495795;239;27459;-76
2023/02/05 08:40:09;;;;;;;30.05;14.63;;;4.20;99.90;;;;;;495781;239;27448;-76
2023/02/05 08:42:10;;;;;;;26.40;13.73;;;4.20;99.90;;;;;;495758;239;27463;-76
2023/02/05 08:44:12;;;;;;;21.95;12.65;;;4.20;99.90;;;;;;495808;239;28131;-77
2023/02/05 08:46:13;;;;;;;24.65;13.98;;;4.30;99.90;;;;;;495776;239;27831;-76
2023/02/05 08:48:14;;;;;;;22.80;12.80;;;4.30;99.90;;;;;;495775;239;27455;-76
2023/02/05 08:50:15;;;;;;;38.28;16.08;;;4.30;99.90;;;;;;495775;239;27351;-76
2023/02/05 08:52:17;;;;;;;26.20;13.40;;;4.30;99.90;;;;;;495780;239;27467;-77
2023/02/05 08:54:18;;;;;;;24.77;13.98;;;4.30;99.90;;;;;;495808;239;27742;-77
2023/02/05 08:56:19;;;;;;;26.20;14.82;;;4.30;99.90;;;;;;495829;239;27459;-75
2023/02/05 08:58:20;;;;;;;35.63;16.02;;;4.30;99.90;;;;;;495856;239;27950;-76
2023/02/05 09:00:22;;;;;;;29.50;14.10;;;4.30;99.90;;;;;;495823;239;27803;-76
2023/02/05 09:02:23;;;;;;;27.45;13.35;;;4.40;99.90;;;;;;495780;239;27477;-76
2023/02/05 09:04:24;;;;;;;30.60;14.85;;;4.40;99.90;;;;;;495803;239;27387;-76
2023/02/05 09:06:25;;;;;;;26.40;13.40;;;4.40;99.90;;;;;;495833;239;27357;-77
2023/02/05 09:08:27;;;;;;;32.92;14.43;;;4.40;99.90;;;;;;495819;239;27412;-76
2023/02/05 09:10:28;;;;;;;27.62;13.05;;;4.40;99.90;;;;;;495748;239;28015;-76
2023/02/05 09:12:29;;;;;;;27.25;14.27;;;4.40;99.90;;;;;;495777;239;27854;-75
2023/02/05 09:14:35;;;;;;;29.67;13.70;;;4.40;99.90;;;;;;495820;239;27507;-76
2023/02/05 09:16:32;;;;;;;33.13;15.93;;;4.40;99.90;;;;;;495614;239;27547;-75
2023/02/05 09:18:33;;;;;;;36.25;16.05;;;4.40;99.90;;;;;;495804;239;27577;-77
2023/02/05 09:20:34;;;;;;;25.77;14.45;;;4.30;99.90;;;;;;495803;239;27355;-76
2023/02/05 09:22:36;;;;;;;31.33;16.40;;;4.30;99.90;;;;;;495784;239;27943;-75
2023/02/05 09:24:37;;;;;;;30.45;15.80;;;4.30;99.90;;;;;;495828;239;28589;-76
2023/02/05 09:26:38;;;;;;;32.15;15.35;;;4.30;99.90;;;;;;495816;239;27343;-77
2023/02/05 09:28:39;;;;;;;43.17;17.90;;;4.30;99.90;;;;;;495813;239;27522;-76
2023/02/05 09:30:41;;;;;;;35.25;18.58;;;4.30;99.90;;;;;;495757;239;27364;-77
2023/02/05 09:32:42;;;;;;;26.62;14.93;;;4.30;99.90;;;;;;495749;239;27408;-77
2023/02/05 09:34:43;;;;;;;29.42;14.20;;;4.30;99.90;;;;;;495778;239;28651;-76
2023/02/05 09:36:44;;;;;;;33.88;17.05;;;4.30;99.90;;;;;;495805;239;27807;-76
2023/02/05 09:38:46;;;;;;;32.25;14.87;;;4.30;99.90;;;;;;495804;239;27495;-76
2023/02/05 09:40:47;;;;;;;29.02;16.55;;;4.40;99.90;;;;;;495794;239;27578;-75
2023/02/05 09:42:48;;;;;;;23.95;13.15;;;4.40;99.90;;;;;;495791;239;27495;-76
2023/02/05 09:44:49;;;;;;;31.42;15.60;;;4.40;99.90;;;;;;495778;239;27361;-76
2023/02/05 09:46:51;;;;;;;33.17;16.37;;;4.50;99.90;;;;;;495779;239;27896;-75
2023/02/05 09:48:52;;;;;;;31.67;16.12;;;4.50;99.90;;;;;;495825;239;28030;-76
2023/02/05 09:50:53;;;;;;;27.83;17.02;;;4.60;99.90;;;;;;495795;239;27431;-77
2023/02/05 09:52:54;;;;;;;29.85;14.80;;;4.60;99.90;;;;;;495794;239;27384;-77
2023/02/05 09:54:56;;;;;;;26.35;14.95;;;4.60;99.90;;;;;;495776;239;27360;-77
2023/02/05 09:56:57;;;;;;;28.27;15.95;;;4.60;99.90;;;;;;495819;239;27393;-77
2023/02/05 09:58:58;;;;;;;31.85;16.17;;;4.70;99.90;;;;;;495843;239;27937;-76
2023/02/05 10:01:00;;;;;;;27.33;15.50;;;4.70;99.90;;;;;;495812;239;27864;-76
2023/02/05 10:03:01;;;;;;;26.75;15.40;;;4.70;99.90;;;;;;495813;239;27495;-77
2023/02/05 10:05:02;;;;;;;31.05;15.80;;;4.70;99.90;;;;;;495814;239;27343;-76
2023/02/05 10:07:03;;;;;;;27.60;15.27;;;4.70;99.90;;;;;;495828;239;27375;-77
2023/02/05 10:09:05;;;;;;;36.05;18.25;;;4.80;99.90;;;;;;495873;239;27396;-78
2023/02/05 10:11:06;;;;;;;23.40;13.95;;;4.80;99.90;;;;;;495851;239;27921;-77
2023/02/05 10:13:07;;;;;;;28.92;15.27;;;4.80;99.90;;;;;;495844;239;27393;-76
2023/02/05 10:15:08;;;;;;;33.25;16.05;;;4.80;99.90;;;;;;495816;239;27352;-76
2023/02/05 10:17:11;;;;;;;23.15;13.07;;;4.90;99.90;;;;;;495824;239;27483;-78
2023/02/05 10:19:11;;;;;;;30.75;15.25;;;4.80;99.90;;;;;;495807;239;27505;-77
2023/02/05 10:21:12;;;;;;;27.00;14.77;;;4.80;99.90;;;;;;495813;239;27892;-76
2023/02/05 10:23:14;;;;;;;24.00;14.50;;;4.90;99.90;;;;;;495825;239;27997;-76
2023/02/05 10:25:15;;;;;;;24.70;14.95;;;4.90;99.90;;;;;;495808;239;27375;-75
2023/02/05 10:27:16;;;;;;;31.15;16.55;;;4.90;99.90;;;;;;495856;239;27444;-75
2023/02/05 10:29:17;;;;;;;24.80;15.23;;;4.90;99.90;;;;;;495821;239;27507;-77
2023/02/05 10:31:18;;;;;;;31.48;15.20;;;4.90;99.90;;;;;;495832;239;27427;-76